Time;durP1;ratioP1;P1;durP2;ratioP2;P2;SDS_P1;SDS_P2;PMS_P1;PMS_P2;Temp;Humidity;BMP_temperature;BMP_pressure;BME280_temperature;BME280_humidity;BME280_pressure;Samples;Min_cycle;Max_cycle;Signal;HPM_P1;HPM_P2
2022/11/13 00:00:40;;;;;;;8.60;4.05;;;21.00;94.00;;;;;;5010290;28;20204;-77
2022/11/13 00:03:07;;;;;;;4.15;3.72;;;21.00;94.20;;;;;;5012563;28;20675;-78
2022/11/13 00:05:34;;;;;;;4.45;4.00;;;21.00;94.20;;;;;;5009152;28;20216;-76
2022/11/13 00:08:01;;;;;;;4.18;3.78;;;21.00;94.20;;;;;;5010259;28;20200;-76
2022/11/13 00:10:27;;;;;;;3.22;3.00;;;21.00;94.20;;;;;;5005784;28;20667;-73
2022/11/13 00:12:54;;;;;;;4.03;3.72;;;21.00;94.30;;;;;;5018703;28;20199;-74
2022/11/13 00:15:21;;;;;;;6.38;3.58;;;20.90;94.20;;;;;;5013127;28;20259;-73
2022/11/13 00:17:49;;;;;;;3.13;2.83;;;20.90;94.30;;;;;;4995926;28;20225;-73
2022/11/13 00:20:17;;;;;;;3.95;3.55;;;20.80;94.50;;;;;;4996839;28;20185;-73
2022/11/13 00:22:44;;;;;;;7.10;4.10;;;20.80;94.50;;;;;;4992509;28;20212;-73
2022/11/13 00:25:10;;;;;;;4.47;3.38;;;20.90;94.30;;;;;;4988882;28;20471;-74
2022/11/13 00:27:37;;;;;;;4.47;3.90;;;20.90;94.10;;;;;;4993726;28;20300;-73
2022/11/13 00:30:05;;;;;;;6.03;4.20;;;20.90;94.00;;;;;;4997693;28;20656;-74
2022/11/13 00:32:31;;;;;;;4.20;3.60;;;20.90;93.90;;;;;;4993273;28;20197;-72
2022/11/13 00:34:59;;;;;;;4.15;3.40;;;20.90;93.90;;;;;;4990911;28;20874;-73
2022/11/13 00:37:26;;;;;;;4.07;3.60;;;20.80;94.10;;;;;;4998777;28;20215;-73
2022/11/13 00:39:53;;;;;;;4.20;3.20;;;20.80;94.20;;;;;;4998637;28;20215;-74
2022/11/13 00:42:20;;;;;;;3.67;3.20;;;20.70;94.30;;;;;;4988040;28;20607;-73
2022/11/13 00:44:46;;;;;;;4.22;3.78;;;20.70;94.30;;;;;;4998017;28;20196;-72
2022/11/13 00:47:13;;;;;;;4.28;3.97;;;20.60;94.40;;;;;;4990208;28;20220;-74
2022/11/13 00:49:40;;;;;;;5.45;4.10;;;20.60;94.40;;;;;;4987166;28;20201;-74
2022/11/13 00:52:08;;;;;;;3.63;3.33;;;20.60;94.50;;;;;;4984307;28;20216;-73
2022/11/13 00:54:34;;;;;;;4.20;3.90;;;20.70;94.40;;;;;;5001230;28;20204;-73
2022/11/13 00:57:01;;;;;;;3.85;3.45;;;20.70;94.30;;;;;;4987407;28;20659;-74
2022/11/13 00:59:28;;;;;;;4.45;4.05;;;20.70;94.20;;;;;;5000406;28;20223;-73
2022/11/13 01:01:54;;;;;;;4.65;3.28;;;20.70;94.20;;;;;;4992801;28;20212;-74
2022/11/13 01:04:21;;;;;;;3.47;3.17;;;20.70;94.20;;;;;;4992833;28;20689;-73
2022/11/13 01:06:48;;;;;;;5.28;3.42;;;20.70;94.50;;;;;;4989018;28;20251;-72
2022/11/13 01:09:16;;;;;;;3.83;3.53;;;20.70;94.10;;;;;;4991112;28;20201;-73
2022/11/13 01:11:43;;;;;;;4.75;3.42;;;20.70;94.10;;;;;;4989272;28;20208;-73
2022/11/13 01:14:10;;;;;;;3.90;3.60;;;20.60;94.00;;;;;;4995432;28;20212;-73
2022/11/13 01:16:37;;;;;;;4.95;3.75;;;20.60;94.00;;;;;;4993991;28;20634;-73
2022/11/13 01:19:03;;;;;;;4.50;4.05;;;20.60;94.00;;;;;;4990628;28;20220;-72
2022/11/13 01:21:30;;;;;;;4.38;3.95;;;20.60;94.00;;;;;;4987974;28;20567;-73
2022/11/13 01:23:57;;;;;;;4.22;3.92;;;20.60;94.40;;;;;;4991892;28;20203;-74
2022/11/13 01:26:27;;;;;;;4.72;4.32;;;20.50;94.50;;;;;;5000493;28;20698;-72
2022/11/13 01:28:55;;;;;;;4.10;3.80;;;20.40;94.60;;;;;;4992721;28;20189;-72
2022/11/13 01:31:24;;;;;;;3.83;3.53;;;20.40;94.70;;;;;;4988825;28;20689;-73
2022/11/13 01:33:50;;;;;;;3.40;3.10;;;20.30;94.80;;;;;;4997374;28;20201;-73
2022/11/13 01:36:19;;;;;;;3.65;3.35;;;20.30;94.90;;;;;;4988259;28;20630;-73
2022/11/13 01:38:46;;;;;;;4.53;4.18;;;20.40;94.80;;;;;;4991302;28;20722;-72
2022/11/13 01:41:16;;;;;;;5.15;3.65;;;20.40;94.70;;;;;;4988378;28;20215;-73
2022/11/13 01:43:45;;;;;;;4.10;3.70;;;20.50;94.60;;;;;;4989552;28;20199;-73
2022/11/13 01:46:26;;;;;;;4.40;4.00;;;20.40;94.60;;;;;;4989524;28;20205;-72
2022/11/13 01:48:58;;;;;;;3.78;3.42;;;20.40;94.60;;;;;;4986109;28;20815;-73
2022/11/13 01:51:29;;;;;;;3.65;3.35;;;20.40;94.70;;;;;;4996827;28;20671;-73
2022/11/13 01:53:57;;;;;;;4.82;4.07;;;20.30;94.70;;;;;;4986797;28;20201;-73
2022/11/13 01:56:25;;;;;;;3.55;3.25;;;20.30;94.70;;;;;;4991030;28;20201;-73
2022/11/13 01:58:58;;;;;;;5.05;4.60;;;20.30;94.70;;;;;;4986751;28;20217;-72
2022/11/13 02:01:25;;;;;;;4.75;3.28;;;20.30;94.60;;;;;;4989958;28;20201;-73
2022/11/13 02:03:52;;;;;;;4.95;4.43;;;20.30;94.60;;;;;;4996882;28;20212;-72
2022/11/13 02:06:20;;;;;;;4.13;3.83;;;20.30;94.60;;;;;;4986899;28;20199;-75
2022/11/13 02:08:49;;;;;;;3.35;3.10;;;20.30;94.60;;;;;;4998046;28;20251;-74
2022/11/13 02:11:16;;;;;;;4.05;3.75;;;20.30;94.90;;;;;;4986139;28;20281;-72
2022/11/13 02:13:44;;;;;;;4.10;3.50;;;20.20;95.10;;;;;;4999131;28;20198;-73
2022/11/13 02:16:13;;;;;;;4.47;4.07;;;20.20;95.20;;;;;;4990400;28;20702;-73
2022/11/13 02:18:41;;;;;;;4.13;3.72;;;20.20;95.40;;;;;;4988377;28;20236;-73
2022/11/13 02:21:22;;;;;;;4.72;4.32;;;20.10;95.40;;;;;;4996962;28;20217;-73
2022/11/13 02:23:56;;;;;;;3.92;3.63;;;20.10;95.40;;;;;;5007870;28;20201;-73
2022/11/13 02:26:26;;;;;;;3.13;2.83;;;20.10;95.30;;;;;;4990308;28;20678;-72
2022/11/13 02:28:53;;;;;;;4.45;4.03;;;20.10;95.20;;;;;;4989510;28;20201;-73
2022/11/13 02:31:19;;;;;;;4.70;4.40;;;20.10;95.20;;;;;;4996636;28;20212;-73
2022/11/13 02:33:46;;;;;;;4.28;3.88;;;20.10;95.30;;;;;;4981057;28;20689;-75
2022/11/13 02:36:14;;;;;;;4.40;4.05;;;20.10;95.30;;;;;;4981130;28;20193;-74
2022/11/13 02:38:41;;;;;;;4.45;4.15;;;20.10;95.30;;;;;;4999388;28;20221;-73
2022/11/13 02:41:08;;;;;;;4.57;4.05;;;20.10;95.30;;;;;;4989541;28;20207;-73
2022/11/13 02:43:36;;;;;;;3.90;3.60;;;20.10;95.30;;;;;;4990300;28;20791;-74
2022/11/13 02:46:03;;;;;;;6.40;3.55;;;20.10;95.30;;;;;;5002601;28;20201;-73
2022/11/13 02:48:30;;;;;;;3.58;3.28;;;20.10;95.30;;;;;;4997386;28;20719;-74
2022/11/13 02:50:56;;;;;;;4.95;4.55;;;20.10;95.30;;;;;;4992261;28;20460;-74
2022/11/13 02:53:23;;;;;;;4.22;3.75;;;20.10;95.40;;;;;;4997623;28;20208;-72
2022/11/13 02:55:50;;;;;;;3.80;3.50;;;20.00;95.70;;;;;;5000256;28;20211;-74
2022/11/13 02:58:17;;;;;;;3.67;3.38;;;20.00;95.80;;;;;;5000017;28;20718;-73
2022/11/13 03:00:45;;;;;;;4.30;3.90;;;20.00;95.90;;;;;;4989972;28;20197;-73
2022/11/13 03:03:11;;;;;;;3.78;3.47;;;19.90;95.90;;;;;;4990211;28;20205;-73
2022/11/13 03:05:38;;;;;;;4.43;4.03;;;19.90;96.10;;;;;;4994839;28;20201;-73
2022/11/13 03:08:06;;;;;;;4.00;3.70;;;19.90;96.00;;;;;;4992832;28;20200;-72
2022/11/13 03:10:33;;;;;;;3.85;3.55;;;19.90;95.90;;;;;;4994164;28;20205;-73
2022/11/13 03:12:59;;;;;;;4.05;3.75;;;19.90;95.80;;;;;;4990748;28;20559;-72
2022/11/13 03:15:26;;;;;;;4.05;3.75;;;20.00;95.90;;;;;;4984122;28;20279;-74
2022/11/13 03:17:54;;;;;;;4.28;3.97;;;19.90;95.90;;;;;;4989818;28;20560;-72
2022/11/13 03:20:21;;;;;;;3.65;3.35;;;19.90;96.00;;;;;;4987904;28;20212;-74
2022/11/13 03:22:47;;;;;;;3.63;3.33;;;19.80;96.00;;;;;;4994252;28;20212;-73
2022/11/13 03:25:14;;;;;;;4.00;3.70;;;19.80;95.90;;;;;;4992782;28;20664;-74
2022/11/13 03:27:41;;;;;;;3.90;3.60;;;19.90;96.00;;;;;;4995627;28;20205;-73
2022/11/13 03:30:09;;;;;;;3.88;3.58;;;19.90;95.90;;;;;;4997689;28;20205;-74
2022/11/13 03:32:35;;;;;;;3.95;3.58;;;19.90;95.90;;;;;;4998968;28;20666;-73
2022/11/13 03:35:04;;;;;;;4.03;3.70;;;19.80;96.00;;;;;;4989569;28;20224;-72
2022/11/13 03:37:31;;;;;;;4.20;3.83;;;19.80;96.30;;;;;;4998532;28;20721;-72
2022/11/13 03:39:58;;;;;;;4.05;3.50;;;19.80;96.30;;;;;;4995968;28;20227;-72
2022/11/13 03:42:24;;;;;;;3.85;3.55;;;19.80;96.40;;;;;;4989306;28;20571;-73
2022/11/13 03:44:51;;;;;;;5.00;3.78;;;19.80;96.50;;;;;;4990732;28;20202;-74
2022/11/13 03:47:18;;;;;;;3.38;3.08;;;19.70;96.60;;;;;;4992710;28;20212;-73
2022/11/13 03:49:44;;;;;;;3.83;3.53;;;19.70;96.50;;;;;;4992827;28;20208;-74
2022/11/13 03:52:12;;;;;;;4.45;4.05;;;19.70;96.40;;;;;;4989000;28;21697;-73
2022/11/13 03:54:39;;;;;;;3.90;3.60;;;19.70;96.30;;;;;;4990930;28;20208;-72
2022/11/13 03:57:06;;;;;;;3.20;2.92;;;19.80;96.40;;;;;;5004570;28;20204;-73
2022/11/13 03:59:33;;;;;;;4.03;3.63;;;19.70;96.40;;;;;;4991420;28;20217;-73
2022/11/13 04:01:59;;;;;;;3.80;3.47;;;19.70;96.40;;;;;;4991826;28;20356;-72
2022/11/13 04:04:26;;;;;;;4.38;3.97;;;19.70;96.40;;;;;;4999110;28;20223;-72
2022/11/13 04:06:53;;;;;;;3.88;3.58;;;19.70;96.40;;;;;;4989763;28;20761;-73
2022/11/13 04:09:21;;;;;;;4.10;3.70;;;19.70;96.40;;;;;;5000137;28;20189;-75
2022/11/13 04:11:48;;;;;;;3.13;2.92;;;19.70;96.40;;;;;;4995825;28;20299;-72
2022/11/13 04:14:15;;;;;;;4.07;3.78;;;19.70;96.40;;;;;;4999388;28;20201;-72
2022/11/13 04:16:42;;;;;;;3.72;3.40;;;19.70;96.40;;;;;;4990743;28;20225;-73
2022/11/13 04:19:08;;;;;;;3.92;3.63;;;19.70;96.70;;;;;;4988613;28;20225;-72
2022/11/13 04:21:35;;;;;;;4.47;4.05;;;19.70;96.80;;;;;;4985882;28;20220;-72
2022/11/13 04:24:02;;;;;;;4.25;3.95;;;19.60;96.70;;;;;;4991366;28;20205;-73
2022/11/13 04:26:30;;;;;;;3.40;3.20;;;19.60;96.80;;;;;;4986333;28;20564;-73
2022/11/13 04:28:56;;;;;;;3.45;3.15;;;19.60;96.70;;;;;;4992519;28;20201;-73
2022/11/13 04:31:23;;;;;;;4.00;3.70;;;19.60;96.70;;;;;;4985305;28;20280;-71
2022/11/13 04:33:50;;;;;;;3.42;3.13;;;19.60;96.80;;;;;;4986846;28;20208;-73
2022/11/13 04:36:17;;;;;;;3.55;3.35;;;19.60;96.80;;;;;;4994459;28;20205;-73
2022/11/13 04:38:43;;;;;;;3.15;2.92;;;19.60;96.80;;;;;;4993181;28;20583;-72
2022/11/13 04:43:58;;;;;;;3.50;3.20;;;19.60;97.10;;;;;;4993628;28;20313;-73
2022/11/13 04:46:25;;;;;;;3.55;3.25;;;19.70;97.10;;;;;;4985763;28;20600;-73
2022/11/13 04:48:52;;;;;;;3.75;3.45;;;19.90;96.50;;;;;;4988060;28;20201;-73
2022/11/13 04:51:18;;;;;;;4.00;3.70;;;20.10;96.20;;;;;;4987929;28;20212;-73
2022/11/13 04:53:45;;;;;;;4.80;3.50;;;20.20;95.80;;;;;;4992127;28;20228;-72
2022/11/13 04:56:12;;;;;;;3.60;3.00;;;20.40;95.50;;;;;;4990568;28;20212;-76
2022/11/13 04:58:39;;;;;;;2.72;2.53;;;20.40;95.30;;;;;;4991526;28;20225;-72
2022/11/13 05:01:07;;;;;;;4.43;2.90;;;20.60;95.10;;;;;;4993002;28;20212;-73
2022/11/13 05:03:33;;;;;;;3.67;3.38;;;20.60;94.80;;;;;;4989799;28;20197;-72
2022/11/13 05:06:04;;;;;;;2.75;2.55;;;20.70;94.80;;;;;;4989407;28;20216;-73
2022/11/13 05:08:31;;;;;;;3.88;3.58;;;20.70;94.60;;;;;;4992829;28;20616;-72
2022/11/13 05:10:58;;;;;;;3.73;3.30;;;20.80;94.40;;;;;;4989360;28;20220;-72
2022/11/13 05:13:24;;;;;;;3.27;2.97;;;20.80;94.30;;;;;;4986284;28;20456;-72
2022/11/13 05:15:59;;;;;;;3.37;3.07;;;20.80;94.30;;;;;;4996339;28;20484;-72
2022/11/13 05:18:27;;;;;;;3.17;2.87;;;20.90;94.20;;;;;;4991176;28;20458;-71
2022/11/13 05:20:54;;;;;;;3.87;3.53;;;20.90;94.10;;;;;;4992102;28;20460;-72
2022/11/13 05:23:20;;;;;;;3.50;3.10;;;20.90;94.00;;;;;;4990268;28;20444;-73
2022/11/13 05:25:47;;;;;;;2.90;2.70;;;21.00;94.00;;;;;;4991187;28;20444;-72
2022/11/13 05:28:16;;;;;;;3.15;2.95;;;21.00;93.90;;;;;;4997973;28;20478;-73
2022/11/13 05:30:42;;;;;;;3.33;3.03;;;21.00;93.80;;;;;;4995389;28;20267;-72
2022/11/13 05:33:09;;;;;;;2.65;2.45;;;21.00;93.90;;;;;;4988190;28;20472;-72
2022/11/13 05:35:37;;;;;;;3.70;3.30;;;21.00;93.90;;;;;;4994303;28;20204;-72
2022/11/13 05:38:04;;;;;;;3.00;2.80;;;20.90;93.80;;;;;;4989405;28;20460;-72
2022/11/13 05:40:31;;;;;;;3.87;3.57;;;20.90;93.90;;;;;;4987413;28;20498;-72
2022/11/13 05:42:57;;;;;;;3.33;3.13;;;20.90;93.90;;;;;;4992804;28;20480;-72
2022/11/13 05:45:24;;;;;;;3.40;3.10;;;20.90;93.90;;;;;;4985460;28;20483;-72
2022/11/13 05:47:51;;;;;;;3.33;3.03;;;20.80;93.90;;;;;;4990008;28;20600;-72
2022/11/13 05:50:19;;;;;;;2.90;2.70;;;20.80;94.00;;;;;;4982312;28;20934;-72
2022/11/13 05:52:48;;;;;;;2.80;2.60;;;20.80;94.00;;;;;;4988906;28;20461;-72
2022/11/13 05:55:15;;;;;;;3.75;3.10;;;20.80;94.00;;;;;;4990911;28;20286;-72
2022/11/13 05:57:42;;;;;;;3.38;3.08;;;20.90;94.00;;;;;;4997953;28;20633;-71
2022/11/13 06:00:10;;;;;;;3.22;3.03;;;20.90;94.00;;;;;;4986679;28;20228;-72
2022/11/13 06:02:36;;;;;;;2.87;2.60;;;20.90;93.90;;;;;;4988609;28;20209;-73
2022/11/13 06:05:04;;;;;;;2.70;2.50;;;21.00;93.80;;;;;;4987821;28;20456;-72
2022/11/13 06:07:30;;;;;;;3.07;2.87;;;21.00;93.80;;;;;;4989427;28;20204;-72
2022/11/13 06:09:58;;;;;;;2.63;2.43;;;21.00;93.60;;;;;;4985079;28;20987;-77
2022/11/13 06:12:25;;;;;;;3.30;2.70;;;21.10;93.50;;;;;;4978358;28;20468;-74
2022/11/13 06:14:52;;;;;;;3.70;3.40;;;21.10;93.50;;;;;;4997873;28;20454;-75
2022/11/13 06:17:19;;;;;;;3.27;2.83;;;21.10;93.50;;;;;;4993352;28;20460;-73
2022/11/13 06:19:47;;;;;;;3.13;2.73;;;21.10;93.50;;;;;;4978899;28;21030;-72
2022/11/13 06:22:13;;;;;;;3.57;3.27;;;21.10;93.60;;;;;;4994531;28;20491;-73
2022/11/13 06:24:41;;;;;;;3.27;3.03;;;21.10;93.60;;;;;;4995865;28;20471;-72
2022/11/13 06:27:09;;;;;;;2.70;2.50;;;21.20;93.50;;;;;;5009053;28;20466;-72
2022/11/13 06:29:36;;;;;;;3.50;3.23;;;21.20;93.40;;;;;;4988930;28;20955;-73
2022/11/13 06:32:03;;;;;;;3.97;2.50;;;21.20;93.30;;;;;;4985848;28;20459;-73
2022/11/13 06:34:29;;;;;;;3.37;3.07;;;21.30;93.30;;;;;;4985614;28;20457;-74
2022/11/13 06:36:56;;;;;;;2.80;2.60;;;21.30;93.20;;;;;;4983423;28;20459;-74
2022/11/13 06:39:23;;;;;;;3.07;2.87;;;21.30;93.10;;;;;;4991337;28;20476;-72
2022/11/13 06:41:49;;;;;;;3.30;2.80;;;21.30;93.00;;;;;;4986248;28;21784;-76
2022/11/13 06:44:19;;;;;;;3.00;2.80;;;21.40;93.00;;;;;;4994606;28;20459;-75
2022/11/13 06:46:45;;;;;;;3.10;2.90;;;21.30;93.00;;;;;;4990299;28;20974;-74
2022/11/13 06:49:12;;;;;;;3.47;2.90;;;21.40;93.00;;;;;;4986390;28;20451;-76
2022/11/13 06:51:39;;;;;;;2.33;2.23;;;21.40;93.00;;;;;;4989009;28;20456;-72
2022/11/13 06:54:06;;;;;;;2.93;2.63;;;21.40;92.90;;;;;;4990398;28;20499;-72
2022/11/13 06:56:32;;;;;;;3.77;3.40;;;21.40;92.70;;;;;;4986138;28;20467;-73
2022/11/13 06:58:59;;;;;;;3.40;3.10;;;21.40;91.90;;;;;;4993468;28;20918;-71
2022/11/13 07:01:27;;;;;;;4.80;3.80;;;21.30;91.80;;;;;;5001374;28;20464;-72
2022/11/13 07:03:54;;;;;;;4.33;3.60;;;21.30;91.80;;;;;;4983867;28;20467;-71
2022/11/13 07:06:23;;;;;;;3.20;3.00;;;21.30;91.90;;;;;;4990531;28;20456;-71
2022/11/13 07:08:51;;;;;;;4.10;3.70;;;21.30;91.90;;;;;;4994953;28;20463;-72
2022/11/13 07:11:20;;;;;;;3.70;3.20;;;21.30;91.80;;;;;;4988950;28;20479;-72
2022/11/13 07:13:47;;;;;;;3.90;3.50;;;21.30;91.80;;;;;;4992323;28;20463;-71
2022/11/13 07:16:16;;;;;;;3.53;3.27;;;21.30;91.80;;;;;;4993162;28;20487;-71
2022/11/13 07:18:48;;;;;;;4.07;3.73;;;21.30;91.80;;;;;;4985849;28;20468;-72
2022/11/13 07:21:15;;;;;;;3.80;3.50;;;21.40;91.80;;;;;;4988938;28;20460;-71
2022/11/13 07:23:44;;;;;;;4.13;3.73;;;21.40;91.70;;;;;;4994970;28;20460;-71
2022/11/13 07:26:11;;;;;;;3.00;2.80;;;21.40;91.60;;;;;;4992539;28;20464;-73
2022/11/13 07:28:38;;;;;;;3.60;3.30;;;21.40;91.50;;;;;;4987944;28;20970;-72
2022/11/13 07:31:06;;;;;;;3.93;3.53;;;21.40;91.40;;;;;;4993756;28;20467;-72
2022/11/13 07:33:33;;;;;;;3.10;2.80;;;21.50;91.80;;;;;;4986648;28;20464;-71
2022/11/13 07:36:01;;;;;;;3.23;2.93;;;21.50;91.40;;;;;;4996493;28;20486;-71
2022/11/13 07:38:28;;;;;;;3.03;2.73;;;21.50;91.30;;;;;;4993655;28;21017;-71
2022/11/13 07:40:57;;;;;;;3.20;2.87;;;21.50;91.20;;;;;;4993761;28;20975;-73
2022/11/13 07:43:24;;;;;;;3.87;3.43;;;21.50;91.30;;;;;;4988913;28;20974;-71
2022/11/13 07:45:53;;;;;;;3.60;3.30;;;21.50;91.50;;;;;;4992161;28;20827;-71
2022/11/13 07:48:20;;;;;;;3.17;2.87;;;21.60;91.20;;;;;;4986946;28;20499;-72
2022/11/13 07:50:47;;;;;;;3.40;3.03;;;21.50;91.10;;;;;;4991059;28;20498;-72
2022/11/13 07:53:16;;;;;;;3.83;3.10;;;21.50;91.20;;;;;;4992001;28;20467;-72
2022/11/13 07:55:43;;;;;;;2.80;2.60;;;21.40;91.20;;;;;;4989650;28;20789;-71
2022/11/13 07:58:10;;;;;;;3.33;3.07;;;21.40;91.40;;;;;;4987268;28;20909;-73
2022/11/13 08:00:37;;;;;;;2.80;2.60;;;21.30;91.50;;;;;;4992461;28;20846;-72
2022/11/13 08:03:08;;;;;;;3.67;3.30;;;21.20;91.60;;;;;;4988444;28;20975;-72
2022/11/13 08:05:35;;;;;;;3.03;2.83;;;21.10;91.70;;;;;;4986764;28;20487;-71
2022/11/13 08:08:02;;;;;;;3.40;3.10;;;21.10;91.80;;;;;;4986885;28;20497;-74
2022/11/13 08:10:30;;;;;;;3.07;2.83;;;21.00;91.90;;;;;;4992107;28;20494;-71
2022/11/13 08:12:59;;;;;;;3.53;2.80;;;21.00;92.50;;;;;;4989163;28;20468;-73
2022/11/13 08:15:26;;;;;;;3.23;2.93;;;21.10;92.10;;;;;;4990491;28;20487;-71
2022/11/13 08:17:54;;;;;;;3.23;2.93;;;21.30;92.00;;;;;;4989021;28;20471;-71
2022/11/13 08:20:21;;;;;;;3.50;2.87;;;21.40;91.70;;;;;;4986028;28;20479;-72
2022/11/13 08:22:48;;;;;;;2.80;2.60;;;21.50;91.40;;;;;;4992850;28;20455;-73
2022/11/13 08:25:15;;;;;;;3.97;3.03;;;21.70;91.20;;;;;;4994498;28;20823;-72
2022/11/13 08:27:43;;;;;;;3.27;2.67;;;21.80;91.00;;;;;;4988423;28;20558;-73
2022/11/13 08:30:11;;;;;;;2.97;2.77;;;21.90;90.70;;;;;;4989947;28;20938;-71
2022/11/13 08:32:38;;;;;;;2.73;2.50;;;22.00;90.50;;;;;;4992021;28;20466;-72
2022/11/13 08:35:05;;;;;;;3.30;2.97;;;22.10;90.50;;;;;;4987302;28;20985;-72
2022/11/13 08:37:32;;;;;;;2.90;2.60;;;22.10;90.40;;;;;;4992647;28;20468;-72
2022/11/13 08:39:59;;;;;;;2.73;2.50;;;22.10;90.30;;;;;;4990753;28;20488;-71
2022/11/13 08:42:26;;;;;;;2.97;2.77;;;22.10;90.20;;;;;;4991782;28;20444;-71
2022/11/13 08:44:54;;;;;;;3.53;3.00;;;22.10;90.20;;;;;;4989994;28;20463;-72
2022/11/13 08:47:21;;;;;;;2.60;2.40;;;22.10;90.10;;;;;;4993740;28;20471;-72
2022/11/13 08:49:48;;;;;;;3.00;2.47;;;22.10;90.10;;;;;;4987459;28;20513;-71
2022/11/13 08:52:15;;;;;;;2.60;2.40;;;22.10;90.10;;;;;;4987171;28;20961;-72
2022/11/13 08:54:42;;;;;;;3.20;3.00;;;22.10;90.10;;;;;;4985887;28;20499;-71
2022/11/13 08:57:09;;;;;;;2.77;2.57;;;22.10;90.00;;;;;;4979888;28;20479;-74
2022/11/13 08:59:35;;;;;;;2.83;2.53;;;22.00;90.00;;;;;;4980572;28;20543;-71
2022/11/13 09:02:04;;;;;;;2.80;2.60;;;22.00;90.00;;;;;;4995915;28;20524;-70
2022/11/13 09:04:31;;;;;;;3.03;2.83;;;22.00;90.00;;;;;;4992002;28;20535;-71
2022/11/13 09:06:57;;;;;;;4.47;2.63;;;22.00;90.00;;;;;;4990361;28;20507;-70
2022/11/13 09:09:24;;;;;;;3.93;3.23;;;22.00;90.00;;;;;;4990393;28;20471;-71
2022/11/13 09:11:51;;;;;;;2.80;2.60;;;22.00;90.00;;;;;;4990185;28;20456;-72
2022/11/13 09:14:18;;;;;;;2.97;2.77;;;22.00;90.00;;;;;;4986301;28;20460;-71
2022/11/13 09:16:45;;;;;;;2.50;2.30;;;22.00;90.00;;;;;;4981559;28;20496;-73
2022/11/13 09:19:13;;;;;;;2.37;2.27;;;22.00;90.00;;;;;;4985730;28;20467;-71
2022/11/13 09:21:39;;;;;;;3.03;2.83;;;22.00;90.00;;;;;;4989560;28;20992;-71
2022/11/13 09:24:09;;;;;;;6.67;2.60;;;22.00;90.00;;;;;;4991868;28;20456;-71
2022/11/13 09:26:36;;;;;;;2.33;2.13;;;22.00;89.90;;;;;;4986049;28;20544;-72
2022/11/13 09:29:04;;;;;;;2.20;2.00;;;22.10;89.80;;;;;;4996943;28;20490;-72
2022/11/13 09:31:31;;;;;;;2.23;2.03;;;22.10;89.80;;;;;;4994735;28;20464;-73
2022/11/13 09:33:57;;;;;;;2.80;2.50;;;22.10;89.50;;;;;;4989949;28;20487;-74
2022/11/13 09:36:25;;;;;;;2.70;2.50;;;22.10;89.10;;;;;;4989799;28;20467;-72
2022/11/13 09:38:52;;;;;;;2.73;2.53;;;22.10;89.10;;;;;;4992436;28;20958;-72
2022/11/13 09:41:22;;;;;;;3.33;3.00;;;22.10;89.00;;;;;;4981582;28;20482;-73
2022/11/13 09:43:52;;;;;;;3.53;3.23;;;22.20;89.00;;;;;;4988576;28;20918;-76
2022/11/13 09:46:23;;;;;;;3.60;2.80;;;22.10;88.80;;;;;;4983910;28;20461;-73
2022/11/13 09:48:56;;;;;;;2.93;2.73;;;22.10;89.20;;;;;;4994073;28;20868;-73
2022/11/13 09:51:29;;;;;;;2.83;2.63;;;22.10;88.80;;;;;;4986607;28;20452;-73
2022/11/13 09:53:57;;;;;;;2.63;2.43;;;22.00;88.90;;;;;;4982503;28;20464;-75
2022/11/13 09:56:31;;;;;;;2.80;2.60;;;22.00;88.90;;;;;;4992998;28;20466;-72
2022/11/13 09:59:18;;;;;;;2.70;2.50;;;22.00;89.00;;;;;;5000070;28;20456;-72
2022/11/13 10:01:53;;;;;;;3.07;2.63;;;22.00;89.10;;;;;;5002347;28;20930;-72
2022/11/13 10:04:28;;;;;;;2.70;2.50;;;22.10;89.10;;;;;;4990781;28;20460;-72
2022/11/13 10:07:05;;;;;;;3.40;2.70;;;22.10;88.80;;;;;;4991066;28;20961;-71
2022/11/13 10:09:39;;;;;;;3.23;3.03;;;22.20;88.50;;;;;;4994038;28;20466;-72
2022/11/13 10:12:07;;;;;;;2.60;2.40;;;22.20;88.20;;;;;;4997598;28;20463;-73
2022/11/13 10:14:38;;;;;;;3.17;2.87;;;22.30;88.00;;;;;;4990768;28;20478;-72
2022/11/13 10:17:13;;;;;;;2.80;2.60;;;22.30;87.60;;;;;;4999940;28;20489;-72
2022/11/13 10:19:45;;;;;;;2.53;2.33;;;22.40;87.50;;;;;;4987050;28;20467;-73
2022/11/13 10:22:17;;;;;;;3.30;2.83;;;22.40;87.20;;;;;;4988340;28;20460;-73
2022/11/13 10:24:45;;;;;;;2.90;2.53;;;22.40;87.00;;;;;;4993852;28;20462;-72
2022/11/13 10:27:15;;;;;;;2.73;2.47;;;22.40;86.90;;;;;;4994133;28;20466;-72
2022/11/13 10:29:42;;;;;;;2.80;2.60;;;22.40;86.80;;;;;;4993510;28;20462;-71
2022/11/13 10:32:18;;;;;;;2.37;2.17;;;22.40;86.80;;;;;;4991259;28;20463;-71
2022/11/13 10:34:49;;;;;;;2.10;2.00;;;22.40;86.80;;;;;;4989519;28;20456;-72
2022/11/13 10:37:30;;;;;;;2.93;2.73;;;22.40;86.70;;;;;;4995876;28;20456;-73
2022/11/13 10:39:56;;;;;;;2.70;2.43;;;22.40;87.50;;;;;;4991946;28;20443;-72
2022/11/13 10:42:27;;;;;;;4.03;2.37;;;22.40;86.70;;;;;;4993011;28;20460;-72
2022/11/13 10:44:56;;;;;;;2.90;2.70;;;22.30;86.70;;;;;;4988960;28;20465;-74
2022/11/13 10:47:25;;;;;;;3.00;2.80;;;22.30;86.70;;;;;;4991996;28;20460;-71
2022/11/13 10:49:53;;;;;;;3.40;2.63;;;22.30;86.60;;;;;;4990099;28;20853;-71
2022/11/13 10:52:24;;;;;;;2.47;2.27;;;22.30;86.70;;;;;;4997452;28;21126;-72
2022/11/13 10:54:51;;;;;;;3.13;2.77;;;22.30;83.80;;;;;;4990187;28;20462;-73
2022/11/13 10:57:27;;;;;;;2.47;2.27;;;22.30;84.70;;;;;;4984131;28;20465;-75
2022/11/13 10:59:55;;;;;;;3.30;3.00;;;22.20;85.20;;;;;;4985183;28;20452;-73
2022/11/13 11:02:23;;;;;;;2.13;2.03;;;22.30;86.40;;;;;;5004568;28;20467;-74
2022/11/13 11:05:02;;;;;;;2.80;2.60;;;22.20;85.60;;;;;;4993057;28;20783;-74
2022/11/13 11:07:39;;;;;;;2.73;2.53;;;22.20;83.00;;;;;;4993021;28;20459;-74
2022/11/13 11:10:18;;;;;;;2.83;2.50;;;22.20;84.20;;;;;;4991693;28;20834;-74
2022/11/13 11:12:52;;;;;;;2.67;2.37;;;22.30;84.60;;;;;;4987880;28;20452;-74
2022/11/13 11:15:23;;;;;;;5.50;2.87;;;22.20;84.70;;;;;;5003381;28;20993;-74
2022/11/13 11:17:54;;;;;;;5.10;2.63;;;22.20;85.20;;;;;;5000204;28;20456;-72
2022/11/13 11:20:26;;;;;;;4.43;2.43;;;22.30;81.90;;;;;;4987302;28;20484;-73
2022/11/13 11:22:59;;;;;;;3.17;2.87;;;22.30;82.60;;;;;;4990291;28;20456;-75
2022/11/13 11:25:36;;;;;;;2.63;2.43;;;22.30;83.10;;;;;;4999556;28;20428;-73
2022/11/13 11:28:09;;;;;;;2.80;2.60;;;22.30;83.40;;;;;;4994116;28;20550;-73
2022/11/13 11:30:44;;;;;;;7.80;2.60;;;22.40;83.70;;;;;;4990198;28;21030;-74
2022/11/13 11:33:15;;;;;;;5.20;2.90;;;22.50;84.30;;;;;;4987550;28;20459;-73
2022/11/13 11:35:45;;;;;;;4.53;3.27;;;22.50;84.30;;;;;;5005716;28;20490;-73
2022/11/13 11:38:19;;;;;;;4.57;3.13;;;22.50;84.40;;;;;;4998388;28;20460;-74
2022/11/13 11:40:51;;;;;;;5.97;3.30;;;22.50;84.70;;;;;;4990751;28;20483;-72
2022/11/13 11:43:23;;;;;;;6.80;2.80;;;22.40;85.10;;;;;;4990015;28;20494;-71
2022/11/13 11:45:50;;;;;;;5.10;3.30;;;22.40;85.30;;;;;;4996944;28;20458;-71
2022/11/13 11:48:19;;;;;;;8.87;3.57;;;22.30;85.40;;;;;;4992109;28;20457;-71
2022/11/13 11:50:54;;;;;;;3.13;2.83;;;22.30;85.70;;;;;;4988789;28;20463;-70
2022/11/13 11:53:34;;;;;;;3.83;3.27;;;22.30;86.00;;;;;;4986189;28;20981;-71
2022/11/13 11:56:12;;;;;;;6.97;3.60;;;22.30;86.30;;;;;;4986855;28;20456;-70
2022/11/13 11:59:08;;;;;;;3.77;2.90;;;22.40;86.50;;;;;;4992996;28;20457;-72
2022/11/13 12:01:56;;;;;;;4.27;2.73;;;22.40;86.50;;;;;;4991558;28;20476;-74
2022/11/13 12:04:37;;;;;;;4.10;3.17;;;22.50;87.50;;;;;;4983360;28;20456;-74
2022/11/13 12:07:16;;;;;;;7.90;2.70;;;22.50;86.80;;;;;;4984785;28;20470;-74
2022/11/13 12:09:56;;;;;;;3.70;2.90;;;22.60;87.40;;;;;;4979619;28;20834;-74
2022/11/13 12:12:32;;;;;;;4.53;2.50;;;22.60;87.40;;;;;;4972645;28;20460;-74
2022/11/13 12:15:05;;;;;;;7.73;2.67;;;22.70;87.80;;;;;;4981967;28;20458;-74
2022/11/13 12:17:48;;;;;;;7.30;2.80;;;22.70;88.00;;;;;;4982362;28;20460;-75
2022/11/13 12:20:25;;;;;;;5.00;3.03;;;22.70;87.90;;;;;;4980922;28;20564;-77
2022/11/13 12:23:01;;;;;;;3.17;2.87;;;22.70;88.70;;;;;;4981300;28;20519;-78
2022/11/13 12:25:36;;;;;;;5.10;3.23;;;22.60;89.40;;;;;;4981639;28;20456;-78
2022/11/13 12:28:11;;;;;;;5.53;2.90;;;22.50;89.70;;;;;;4980443;28;20537;-76
2022/11/13 12:30:46;;;;;;;2.83;2.53;;;22.50;90.00;;;;;;4983553;28;20483;-77
2022/11/13 12:33:22;;;;;;;7.57;2.43;;;22.50;90.00;;;;;;4983474;28;20519;-74
2022/11/13 12:35:53;;;;;;;3.87;2.50;;;22.60;90.20;;;;;;4982567;28;20559;-77
2022/11/13 12:38:32;;;;;;;5.67;2.40;;;22.50;90.30;;;;;;4982832;28;20536;-75
2022/11/13 12:41:07;;;;;;;4.00;2.93;;;22.50;90.30;;;;;;4975696;28;20484;-75
2022/11/13 12:44:02;;;;;;;5.73;3.00;;;22.50;90.40;;;;;;4984292;28;20475;-76
2022/11/13 12:46:37;;;;;;;3.40;2.33;;;22.50;90.40;;;;;;4974700;28;20459;-75
2022/11/13 12:49:16;;;;;;;7.10;2.93;;;22.50;90.40;;;;;;4984436;28;20998;-74
2022/11/13 12:51:54;;;;;;;2.47;2.20;;;22.60;90.30;;;;;;4977654;28;22148;-76
2022/11/13 12:54:26;;;;;;;2.63;2.23;;;22.60;90.40;;;;;;4981216;28;20451;-76
2022/11/13 12:57:16;;;;;;;3.10;2.07;;;22.60;90.40;;;;;;4980969;28;20998;-75
2022/11/13 12:59:46;;;;;;;5.57;2.30;;;22.60;90.40;;;;;;4981620;28;20464;-77